createdAt,value
2024-01-06T00:02:45.181Z,95.30
2024-01-06T00:05:30.887Z,96.00
2024-01-06T00:08:16.297Z,96.50
2024-01-06T00:11:03.951Z,97.00
2024-01-06T00:13:49.730Z,97.10
2024-01-06T00:16:34.930Z,96.80
2024-01-06T00:19:20.790Z,96.30
2024-01-06T00:22:06.474Z,96.80
2024-01-06T00:24:52.200Z,97.30
2024-01-06T00:27:37.639Z,97.70
2024-01-06T00:30:23.366Z,97.70
2024-01-06T00:33:09.021Z,98.30
2024-01-06T00:35:56.177Z,98.10
2024-01-06T00:38:41.453Z,97.50
2024-01-06T00:41:27.251Z,97.60
2024-01-06T00:44:12.932Z,97.30
2024-01-06T00:46:58.399Z,96.90
2024-01-06T00:49:44.445Z,96.90
2024-01-06T00:52:30.054Z,97.30
2024-01-06T00:55:15.722Z,96.20
2024-01-06T00:58:01.571Z,96.70
2024-01-06T01:00:47.216Z,97.60
2024-01-06T01:03:32.725Z,97.50
2024-01-06T01:06:18.559Z,97.50
2024-01-06T01:09:03.837Z,97.70
2024-01-06T01:11:49.274Z,97.30
2024-01-06T01:14:34.845Z,97.60
2024-01-06T01:17:20.756Z,96.50
2024-01-06T01:20:07.357Z,96.50
2024-01-06T01:22:52.784Z,94.70
2024-01-06T01:25:38.365Z,94.70
2024-01-06T01:28:23.890Z,95.50
2024-01-06T01:31:09.678Z,95.20
2024-01-06T01:33:55.226Z,95.10
2024-01-06T01:36:41.246Z,95.20
2024-01-06T01:39:26.404Z,96.10
2024-01-06T01:42:12.014Z,95.50
2024-01-06T01:44:57.428Z,95.50
2024-01-06T01:47:43.558Z,95.90
2024-01-06T01:50:31.670Z,97.10
2024-01-06T01:53:17.313Z,97.50
2024-01-06T01:56:02.918Z,98.00
2024-01-06T01:58:48.614Z,98.60
2024-01-06T02:01:34.908Z,98.70
2024-01-06T02:04:20.329Z,98.40
2024-01-06T02:07:05.996Z,98.60
2024-01-06T02:09:51.467Z,99.00
2024-01-06T02:12:36.936Z,99.40
2024-01-06T02:15:22.524Z,99.30
2024-01-06T02:18:08.756Z,99.50
2024-01-06T02:20:57.856Z,99.90
2024-01-06T02:23:43.404Z,99.90
2024-01-06T02:26:28.854Z,99.90
2024-01-06T02:29:14.367Z,99.90
2024-01-06T02:32:00.112Z,99.90
2024-01-06T02:34:45.823Z,99.90
2024-01-06T02:37:30.979Z,99.90
2024-01-06T02:40:16.454Z,99.90
2024-01-06T02:43:01.979Z,99.90
2024-01-06T02:45:48.237Z,99.90
2024-01-06T02:48:34.199Z,99.90
2024-01-06T02:51:19.545Z,99.90
2024-01-06T02:54:05.493Z,99.90
2024-01-06T02:56:50.833Z,99.90
2024-01-06T02:59:36.411Z,99.90
2024-01-06T03:02:21.868Z,99.90
2024-01-06T03:05:07.510Z,99.90
2024-01-06T03:07:53.100Z,99.90
2024-01-06T03:10:39.229Z,99.90
2024-01-06T03:13:24.820Z,99.90
2024-01-06T03:16:12.552Z,99.90
2024-01-06T03:18:57.939Z,99.90
2024-01-06T03:21:43.182Z,99.90
2024-01-06T03:24:28.956Z,99.90
2024-01-06T03:27:15.014Z,99.60
2024-01-06T03:30:00.575Z,99.70
2024-01-06T03:32:46.148Z,99.90
2024-01-06T03:35:31.736Z,99.90
2024-01-06T03:38:17.458Z,99.90
2024-01-06T03:41:02.914Z,99.90
2024-01-06T03:43:48.456Z,99.60
2024-01-06T03:46:35.970Z,99.10
2024-01-06T03:49:21.912Z,99.20
2024-01-06T03:52:07.482Z,99.20
2024-01-06T03:54:52.956Z,99.20
2024-01-06T03:57:38.663Z,99.10
2024-01-06T04:00:26.932Z,99.30
2024-01-06T04:03:12.453Z,99.70
2024-01-06T04:05:57.900Z,99.10
2024-01-06T04:08:43.366Z,98.20
2024-01-06T04:11:28.816Z,99.10
2024-01-06T04:14:14.217Z,99.20
2024-01-06T04:16:59.917Z,99.50
2024-01-06T04:19:45.550Z,99.40
2024-01-06T04:22:30.838Z,99.20
2024-01-06T04:25:16.367Z,99.10
2024-01-06T04:28:01.969Z,99.20
2024-01-06T04:30:47.583Z,99.50
2024-01-06T04:33:33.244Z,98.90
2024-01-06T04:36:18.709Z,99.10
2024-01-06T04:39:04.388Z,99.50
2024-01-06T04:41:49.841Z,99.20
2024-01-06T04:44:35.226Z,99.50
2024-01-06T04:47:20.928Z,99.20
2024-01-06T04:50:06.795Z,98.20
2024-01-06T04:52:52.508Z,98.70
2024-01-06T04:55:38.440Z,98.80
2024-01-06T04:58:23.812Z,99.20
2024-01-06T05:01:09.721Z,99.00
2024-01-06T05:03:55.109Z,99.60
2024-01-06T05:06:40.504Z,99.30
2024-01-06T05:09:29.050Z,99.30
2024-01-06T05:12:14.565Z,99.40
2024-01-06T05:15:00.179Z,99.00
2024-01-06T05:17:45.732Z,98.70
2024-01-06T05:20:31.048Z,99.40
2024-01-06T05:23:16.759Z,99.90
2024-01-06T05:26:02.227Z,99.30
2024-01-06T05:28:47.891Z,99.80
2024-01-06T05:31:33.352Z,99.80
2024-01-06T05:34:18.791Z,99.80
2024-01-06T05:37:04.672Z,99.80
2024-01-06T05:39:50.321Z,99.90
2024-01-06T05:42:35.618Z,99.90
2024-01-06T05:45:21.147Z,99.90
2024-01-06T05:48:10.473Z,99.90
2024-01-06T05:50:55.902Z,99.90
2024-01-06T05:53:43.088Z,99.90
2024-01-06T05:56:28.884Z,99.90
2024-01-06T05:59:14.174Z,99.90
2024-01-06T06:01:59.505Z,99.60
2024-01-06T06:04:45.117Z,99.80
2024-01-06T06:07:30.768Z,99.40
2024-01-06T06:10:17.369Z,99.30
2024-01-06T06:13:03.025Z,99.70
2024-01-06T06:15:48.552Z,99.50
2024-01-06T06:18:34.358Z,99.20
2024-01-06T06:21:19.988Z,99.70
2024-01-06T06:24:05.766Z,99.80
2024-01-06T06:26:51.650Z,99.80
2024-01-06T06:29:37.143Z,99.90
2024-01-06T06:32:22.787Z,99.90
2024-01-06T06:35:08.844Z,99.90
2024-01-06T06:37:54.274Z,99.90
2024-01-06T06:40:40.446Z,99.90
2024-01-06T06:43:25.941Z,99.90
2024-01-06T06:46:11.401Z,99.90
2024-01-06T06:48:57.264Z,99.90
2024-01-06T06:51:48.062Z,99.90
2024-01-06T06:54:33.581Z,99.90
2024-01-06T06:57:19.208Z,99.90
2024-01-06T07:00:05.146Z,99.90
2024-01-06T07:02:51.217Z,99.90
2024-01-06T07:05:36.442Z,99.90
2024-01-06T07:08:21.872Z,99.90
2024-01-06T07:11:07.845Z,99.90
2024-01-06T07:13:53.303Z,99.90
2024-01-06T07:16:38.877Z,99.90
2024-01-06T07:19:24.695Z,99.70
2024-01-06T07:22:10.587Z,99.80
2024-01-06T07:24:56.231Z,99.80
2024-01-06T07:27:41.655Z,99.70
2024-01-06T07:30:27.411Z,99.90
2024-01-06T07:33:12.948Z,99.90
2024-01-06T07:35:58.255Z,99.90
2024-01-06T07:38:43.737Z,99.90
2024-01-06T07:41:29.304Z,99.90
2024-01-06T07:44:17.023Z,99.90
2024-01-06T07:47:06.077Z,99.90
2024-01-06T07:49:52.071Z,99.90
2024-01-06T07:52:37.763Z,99.90
2024-01-06T07:55:23.562Z,99.90
2024-01-06T07:58:09.018Z,99.90
2024-01-06T08:00:54.621Z,99.90
2024-01-06T08:03:40.124Z,99.90
2024-01-06T08:06:26.660Z,99.90
2024-01-06T08:09:12.056Z,99.90
2024-01-06T08:11:57.536Z,99.90
2024-01-06T08:14:43.075Z,99.90
2024-01-06T08:17:28.972Z,99.90
2024-01-06T08:20:14.179Z,99.90
2024-01-06T08:22:59.730Z,99.90
2024-01-06T08:25:46.913Z,99.90
2024-01-06T08:28:32.322Z,99.90
2024-01-06T08:31:18.036Z,99.90
2024-01-06T08:34:03.582Z,99.90
2024-01-06T08:36:49.104Z,99.90
2024-01-06T08:39:34.800Z,99.90
2024-01-06T08:42:20.313Z,99.90
2024-01-06T08:45:06.282Z,99.90
2024-01-06T08:47:51.511Z,99.90
2024-01-06T08:50:36.869Z,99.90
2024-01-06T08:53:22.282Z,99.90
2024-01-06T08:56:08.238Z,99.90
2024-01-06T08:58:53.610Z,99.90
2024-01-06T09:01:40.123Z,99.90
2024-01-06T09:04:26.216Z,99.90
2024-01-06T09:07:11.906Z,99.90
2024-01-06T09:09:57.602Z,99.90
2024-01-06T09:12:43.299Z,99.90
2024-01-06T09:15:28.898Z,99.90
2024-01-06T09:18:15.138Z,99.90
2024-01-06T09:21:00.884Z,99.90
2024-01-06T09:23:46.419Z,99.90
2024-01-06T09:26:31.989Z,99.90
2024-01-06T09:29:17.651Z,99.90
2024-01-06T09:32:03.563Z,99.90
2024-01-06T09:34:49.566Z,99.90
2024-01-06T09:37:34.986Z,99.90
2024-01-06T09:40:25.321Z,99.90
2024-01-06T09:43:14.137Z,99.90
2024-01-06T09:46:17.475Z,99.90
2024-01-06T09:49:03.681Z,99.90
2024-01-06T09:51:52.430Z,99.90
2024-01-06T09:54:39.993Z,99.90
2024-01-06T09:57:25.682Z,99.90
2024-01-06T10:00:11.931Z,99.90
2024-01-06T10:02:57.192Z,99.90
2024-01-06T10:05:42.661Z,99.90
2024-01-06T10:08:28.015Z,99.70
2024-01-06T10:11:14.510Z,99.90
2024-01-06T10:13:59.704Z,99.90
2024-01-06T10:16:45.453Z,99.90
2024-01-06T10:19:31.179Z,99.50
2024-01-06T10:22:16.823Z,99.40
2024-01-06T10:25:02.097Z,99.70
2024-01-06T10:27:47.524Z,99.10
2024-01-06T10:30:33.101Z,99.20
2024-01-06T10:33:18.616Z,98.70
2024-01-06T10:36:05.391Z,98.40
2024-01-06T10:38:51.078Z,97.90
2024-01-06T10:41:38.495Z,98.10
2024-01-06T10:44:25.818Z,97.60
2024-01-06T10:47:12.529Z,95.00
2024-01-06T10:50:02.076Z,95.00
2024-01-06T10:52:49.285Z,96.00
2024-01-06T10:55:35.369Z,96.70
2024-01-06T10:58:20.935Z,96.60
2024-01-06T11:01:06.864Z,96.30
2024-01-06T11:03:55.350Z,96.90
2024-01-06T11:06:41.286Z,96.80
2024-01-06T11:09:32.494Z,97.00
2024-01-06T11:12:19.198Z,96.90
2024-01-06T11:15:05.409Z,97.00
2024-01-06T11:17:56.814Z,97.00
2024-01-06T11:21:18.900Z,96.90
2024-01-06T11:24:17.504Z,96.70
2024-01-06T11:27:03.269Z,97.20
2024-01-06T11:29:48.766Z,97.20
2024-01-06T11:32:37.588Z,97.10
2024-01-06T11:35:25.136Z,97.80
2024-01-06T11:38:13.533Z,97.90
2024-01-06T11:40:58.791Z,98.20
2024-01-06T11:43:44.403Z,98.10
2024-01-06T11:46:30.499Z,97.90
2024-01-06T11:49:22.236Z,98.20
2024-01-06T11:52:07.757Z,98.40
2024-01-06T11:54:57.696Z,98.80
2024-01-06T11:57:43.478Z,99.30
2024-01-06T12:00:31.832Z,99.20
2024-01-06T12:03:18.343Z,98.50
2024-01-06T12:06:05.724Z,99.00
2024-01-06T12:08:52.159Z,99.30
2024-01-06T12:11:38.790Z,99.50
2024-01-06T12:14:23.967Z,99.80
2024-01-06T12:17:10.997Z,98.80
2024-01-06T12:19:56.481Z,99.00
2024-01-06T12:22:41.962Z,98.70
2024-01-06T12:25:29.747Z,98.50
2024-01-06T12:28:16.661Z,98.50
2024-01-06T12:31:05.847Z,98.90
2024-01-06T12:33:51.191Z,99.10
2024-01-06T12:36:38.569Z,98.70
2024-01-06T12:39:27.931Z,98.90
2024-01-06T12:42:17.669Z,98.40
2024-01-06T12:45:03.440Z,97.70
2024-01-06T12:47:48.658Z,98.30
2024-01-06T12:50:34.242Z,98.60
2024-01-06T12:53:19.756Z,98.50
2024-01-06T12:56:05.942Z,99.00
2024-01-06T12:58:51.537Z,99.20
2024-01-06T13:01:37.219Z,99.70
2024-01-06T13:04:22.595Z,99.50
2024-01-06T13:07:08.238Z,99.60
2024-01-06T13:09:53.928Z,99.50
2024-01-06T13:12:39.290Z,99.10
2024-01-06T13:15:24.767Z,99.40
2024-01-06T13:18:10.127Z,99.60
2024-01-06T13:20:55.846Z,99.30
2024-01-06T13:23:41.438Z,99.40
2024-01-06T13:26:26.801Z,99.70
2024-01-06T13:29:12.471Z,99.90
2024-01-06T13:32:00.291Z,98.80
2024-01-06T13:34:46.152Z,98.70
2024-01-06T13:37:33.192Z,99.50
2024-01-06T13:40:22.276Z,99.40
2024-01-06T13:43:10.173Z,98.60
2024-01-06T13:45:56.197Z,98.60
2024-01-06T13:48:42.459Z,98.70
2024-01-06T13:51:28.744Z,99.10
2024-01-06T13:54:16.654Z,98.60
2024-01-06T13:57:03.923Z,98.30
2024-01-06T13:59:49.386Z,98.20
2024-01-06T14:02:35.484Z,98.90
2024-01-06T14:05:21.138Z,98.20
2024-01-06T14:08:07.421Z,98.00
2024-01-06T14:10:52.643Z,98.50
2024-01-06T14:13:38.015Z,98.00
2024-01-06T14:16:23.759Z,98.40
2024-01-06T14:19:09.283Z,98.90
2024-01-06T14:21:54.473Z,99.50
2024-01-06T14:24:40.083Z,99.30
2024-01-06T14:27:27.185Z,98.30
2024-01-06T14:30:12.741Z,99.40
2024-01-06T14:32:58.298Z,98.30
2024-01-06T14:35:44.820Z,98.40
2024-01-06T14:38:30.461Z,99.40
2024-01-06T14:41:16.000Z,99.50
2024-01-06T14:44:01.499Z,99.20
2024-01-06T14:46:51.643Z,97.90
2024-01-06T14:49:37.539Z,97.70
2024-01-06T14:52:22.969Z,98.00
2024-01-06T14:55:09.093Z,98.10
2024-01-06T14:57:54.410Z,99.10
2024-01-06T15:00:39.986Z,98.80
2024-01-06T15:03:26.398Z,98.50
2024-01-06T15:06:12.090Z,98.00
2024-01-06T15:08:57.642Z,98.00
2024-01-06T15:11:43.224Z,98.30
2024-01-06T15:14:28.843Z,98.60
2024-01-06T15:17:14.805Z,98.40
2024-01-06T15:20:00.148Z,98.00
2024-01-06T15:22:45.673Z,97.90
2024-01-06T15:25:31.067Z,97.20
2024-01-06T15:28:17.201Z,98.20
2024-01-06T15:31:03.446Z,97.70
2024-01-06T15:33:49.207Z,97.90
2024-01-06T15:36:35.014Z,97.50
2024-01-06T15:39:20.611Z,97.70
2024-01-06T15:42:06.335Z,98.00
2024-01-06T15:44:52.042Z,98.00
2024-01-06T15:47:37.506Z,97.80
2024-01-06T15:50:23.204Z,97.40
2024-01-06T15:53:08.336Z,98.00
2024-01-06T15:55:53.805Z,97.40
2024-01-06T15:58:39.571Z,98.00
2024-01-06T16:01:24.989Z,97.30
2024-01-06T16:04:11.146Z,97.80
2024-01-06T16:06:56.729Z,96.20
2024-01-06T16:09:42.284Z,97.10
2024-01-06T16:12:29.968Z,97.50
2024-01-06T16:15:15.872Z,96.50
2024-01-06T16:18:01.180Z,97.00
2024-01-06T16:20:50.035Z,96.60
2024-01-06T16:23:35.203Z,96.70
2024-01-06T16:26:20.783Z,97.50
2024-01-06T16:29:06.533Z,97.50
2024-01-06T16:31:52.444Z,97.10
2024-01-06T16:34:40.027Z,97.30
2024-01-06T16:37:25.726Z,96.90
2024-01-06T16:40:12.327Z,96.40
2024-01-06T16:42:57.908Z,96.70
2024-01-06T16:45:43.465Z,96.70
2024-01-06T16:48:29.146Z,96.20
2024-01-06T16:51:15.805Z,95.70
2024-01-06T16:54:01.052Z,95.70
2024-01-06T16:56:47.336Z,96.70
2024-01-06T16:59:35.471Z,97.50
2024-01-06T17:02:20.936Z,97.00
2024-01-06T17:05:09.841Z,97.20
2024-01-06T17:07:56.054Z,96.70
2024-01-06T17:10:42.308Z,95.70
2024-01-06T17:13:27.966Z,96.50
2024-01-06T17:16:14.377Z,96.00
2024-01-06T17:18:59.805Z,96.30
2024-01-06T17:21:46.098Z,95.50
2024-01-06T17:24:32.101Z,95.80
2024-01-06T17:27:17.613Z,95.80
2024-01-06T17:30:03.006Z,96.00
2024-01-06T17:32:48.774Z,95.00
2024-01-06T17:35:34.049Z,95.20
2024-01-06T17:38:19.791Z,95.40
2024-01-06T17:41:06.807Z,95.20
2024-01-06T17:43:56.284Z,94.30
2024-01-06T17:46:41.790Z,95.10
2024-01-06T17:49:27.676Z,94.30
2024-01-06T17:52:13.089Z,95.20
2024-01-06T17:54:58.659Z,96.00
2024-01-06T17:57:44.311Z,95.90
2024-01-06T18:00:31.864Z,95.60
2024-01-06T18:03:17.663Z,95.30
2024-01-06T18:06:03.461Z,95.70
2024-01-06T18:08:49.449Z,94.20
2024-01-06T18:11:34.679Z,95.50
2024-01-06T18:14:20.260Z,95.00
2024-01-06T18:17:07.228Z,95.10
2024-01-06T18:19:53.215Z,93.70
2024-01-06T18:22:38.740Z,94.20
2024-01-06T18:25:24.269Z,94.00
2024-01-06T18:28:10.049Z,94.30
2024-01-06T18:30:55.599Z,94.20
2024-01-06T18:33:41.088Z,93.20
2024-01-06T18:36:27.188Z,92.70
2024-01-06T18:39:12.928Z,92.90
2024-01-06T18:41:58.117Z,93.80
2024-01-06T18:44:43.585Z,93.60
2024-01-06T18:47:29.613Z,93.50
2024-01-06T18:50:15.733Z,93.40
2024-01-06T18:53:01.101Z,92.20
2024-01-06T18:55:46.702Z,92.70
2024-01-06T18:58:32.189Z,93.50
2024-01-06T19:01:17.931Z,91.90
2024-01-06T19:04:03.873Z,92.00
2024-01-06T19:06:49.520Z,92.10
2024-01-06T19:09:35.596Z,93.20
2024-01-06T19:12:21.195Z,93.40
2024-01-06T19:15:06.775Z,92.20
2024-01-06T19:17:52.477Z,92.10
2024-01-06T19:20:37.757Z,91.80
2024-01-06T19:23:23.316Z,92.40
2024-01-06T19:26:08.838Z,92.20
2024-01-06T19:28:54.268Z,90.70
2024-01-06T19:31:40.047Z,93.00
2024-01-06T19:34:25.478Z,93.00
2024-01-06T19:37:11.140Z,91.80
2024-01-06T19:39:56.360Z,92.30
2024-01-06T19:42:41.880Z,92.10
2024-01-06T19:45:27.342Z,91.00
2024-01-06T19:48:12.848Z,92.30
2024-01-06T19:50:58.301Z,92.10
2024-01-06T19:53:43.688Z,92.10
2024-01-06T19:56:29.387Z,91.60
2024-01-06T19:59:15.135Z,92.10
2024-01-06T20:02:00.590Z,90.80
2024-01-06T20:04:46.994Z,90.40
2024-01-06T20:07:32.533Z,91.00
2024-01-06T20:10:18.105Z,91.20
2024-01-06T20:13:04.002Z,91.40
2024-01-06T20:15:49.363Z,90.70
2024-01-06T20:18:35.144Z,90.70
2024-01-06T20:21:20.479Z,90.90
2024-01-06T20:24:06.451Z,91.20
2024-01-06T20:26:53.513Z,89.30
2024-01-06T20:29:40.129Z,90.90
2024-01-06T20:32:26.129Z,90.50
2024-01-06T20:35:11.986Z,91.00
2024-01-06T20:37:58.228Z,90.70
2024-01-06T20:40:43.709Z,91.00
2024-01-06T20:43:29.042Z,90.40
2024-01-06T20:46:19.671Z,90.20
2024-01-06T20:49:05.039Z,90.40
2024-01-06T20:51:54.108Z,90.80
2024-01-06T20:54:39.801Z,88.90
2024-01-06T20:57:25.462Z,89.70
2024-01-06T21:00:11.351Z,89.40
2024-01-06T21:02:56.527Z,90.80
2024-01-06T21:05:42.694Z,90.80
2024-01-06T21:08:28.320Z,91.10
2024-01-06T21:11:13.538Z,90.60
2024-01-06T21:13:59.056Z,89.90
2024-01-06T21:16:44.442Z,89.60
2024-01-06T21:19:30.319Z,90.70
2024-01-06T21:22:15.503Z,91.50
2024-01-06T21:25:02.232Z,90.70
2024-01-06T21:27:47.663Z,90.60
2024-01-06T21:30:33.601Z,91.70
2024-01-06T21:33:19.362Z,90.90
2024-01-06T21:36:04.832Z,91.20
2024-01-06T21:38:50.570Z,90.30
2024-01-06T21:41:36.339Z,91.10
2024-01-06T21:44:22.953Z,90.20
2024-01-06T21:47:08.574Z,92.00
2024-01-06T21:49:54.223Z,90.60
2024-01-06T21:52:41.257Z,91.50
2024-01-06T21:55:26.989Z,91.10
2024-01-06T21:58:12.476Z,91.10
2024-01-06T22:00:59.050Z,90.20
2024-01-06T22:03:44.696Z,90.40
2024-01-06T22:06:30.606Z,92.00
2024-01-06T22:09:18.105Z,91.60
2024-01-06T22:12:05.450Z,90.30
2024-01-06T22:14:50.795Z,90.20
2024-01-06T22:17:36.359Z,91.10
2024-01-06T22:20:22.342Z,91.30
2024-01-06T22:23:07.659Z,89.70
2024-01-06T22:25:53.159Z,90.00
2024-01-06T22:28:38.579Z,89.80
2024-01-06T22:31:24.402Z,89.80
2024-01-06T22:34:11.168Z,91.10
2024-01-06T22:36:58.223Z,90.40
2024-01-06T22:39:44.594Z,90.50
2024-01-06T22:42:29.931Z,89.60
2024-01-06T22:45:15.491Z,91.00
2024-01-06T22:48:01.330Z,91.20
2024-01-06T22:50:46.714Z,90.40
2024-01-06T22:53:32.196Z,90.80
2024-01-06T22:56:18.463Z,90.70
2024-01-06T22:59:04.137Z,89.60
2024-01-06T23:01:52.686Z,88.80
2024-01-06T23:04:38.522Z,90.30
2024-01-06T23:07:24.052Z,90.00
2024-01-06T23:10:09.860Z,89.40
2024-01-06T23:12:55.598Z,89.50
2024-01-06T23:15:41.445Z,89.20
2024-01-06T23:18:27.212Z,90.10
2024-01-06T23:21:12.628Z,89.20
2024-01-06T23:23:58.325Z,89.10
2024-01-06T23:26:44.735Z,90.00
2024-01-06T23:29:30.302Z,89.00
2024-01-06T23:32:15.935Z,88.90
2024-01-06T23:35:01.407Z,87.90
2024-01-06T23:37:51.514Z,89.50
2024-01-06T23:40:37.599Z,89.40
2024-01-06T23:43:22.795Z,88.40
2024-01-06T23:46:08.404Z,88.90
2024-01-06T23:48:54.487Z,89.40
2024-01-06T23:51:39.835Z,89.60
2024-01-06T23:54:25.671Z,88.70
2024-01-06T23:57:11.119Z,86.90
2024-01-06T23:59:56.700Z,89.10
